sensor_id;sensor_type;location;lat;lon;timestamp;P1;durP1;ratioP1;P2;durP2;ratioP2
14770;SDS011;7477;45.222;5.688;2022-12-01T00:02:51;14.15;;;10.77;;
14770;SDS011;7477;45.222;5.688;2022-12-01T00:06:12;18.27;;;12.77;;
14770;SDS011;7477;45.222;5.688;2022-12-01T00:09:34;17.88;;;12.85;;
14770;SDS011;7477;45.222;5.688;2022-12-01T00:13:13;19.63;;;12.93;;
14770;SDS011;7477;45.222;5.688;2022-12-01T00:16:33;21.20;;;14.20;;
14770;SDS011;7477;45.222;5.688;2022-12-01T00:19:53;23.25;;;14.52;;
14770;SDS011;7477;45.222;5.688;2022-12-01T00:23:14;26.40;;;17.70;;
14770;SDS011;7477;45.222;5.688;2022-12-01T00:26:34;23.25;;;16.73;;
14770;SDS011;7477;45.222;5.688;2022-12-01T00:29:55;24.75;;;16.23;;
14770;SDS011;7477;45.222;5.688;2022-12-01T00:33:15;18.02;;;11.70;;
14770;SDS011;7477;45.222;5.688;2022-12-01T00:36:35;18.88;;;11.63;;
14770;SDS011;7477;45.222;5.688;2022-12-01T00:39:56;18.20;;;11.02;;
14770;SDS011;7477;45.222;5.688;2022-12-01T00:43:16;12.68;;;9.88;;
14770;SDS011;7477;45.222;5.688;2022-12-01T00:46:36;22.52;;;13.48;;
14770;SDS011;7477;45.222;5.688;2022-12-01T00:49:56;25.27;;;13.02;;
14770;SDS011;7477;45.222;5.688;2022-12-01T00:53:16;15.50;;;10.30;;
14770;SDS011;7477;45.222;5.688;2022-12-01T00:56:36;16.40;;;11.40;;
14770;SDS011;7477;45.222;5.688;2022-12-01T00:59:57;18.45;;;12.18;;
14770;SDS011;7477;45.222;5.688;2022-12-01T01:03:16;16.83;;;10.93;;
14770;SDS011;7477;45.222;5.688;2022-12-01T01:06:36;18.42;;;10.48;;
14770;SDS011;7477;45.222;5.688;2022-12-01T01:09:56;19.05;;;11.68;;
14770;SDS011;7477;45.222;5.688;2022-12-01T01:13:16;13.82;;;10.23;;
14770;SDS011;7477;45.222;5.688;2022-12-01T01:16:36;14.77;;;9.15;;
14770;SDS011;7477;45.222;5.688;2022-12-01T01:19:56;16.25;;;10.00;;
14770;SDS011;7477;45.222;5.688;2022-12-01T01:23:16;15.93;;;9.98;;
14770;SDS011;7477;45.222;5.688;2022-12-01T01:26:36;13.15;;;9.15;;
14770;SDS011;7477;45.222;5.688;2022-12-01T01:29:56;14.68;;;9.98;;
14770;SDS011;7477;45.222;5.688;2022-12-01T01:33:16;14.68;;;9.65;;
14770;SDS011;7477;45.222;5.688;2022-12-01T01:36:36;15.18;;;10.32;;
14770;SDS011;7477;45.222;5.688;2022-12-01T01:39:56;16.75;;;9.35;;
14770;SDS011;7477;45.222;5.688;2022-12-01T01:47:01;13.82;;;8.45;;
14770;SDS011;7477;45.222;5.688;2022-12-01T01:50:21;15.13;;;8.85;;
14770;SDS011;7477;45.222;5.688;2022-12-01T01:53:44;14.05;;;8.98;;
14770;SDS011;7477;45.222;5.688;2022-12-01T01:57:05;13.73;;;8.02;;
14770;SDS011;7477;45.222;5.688;2022-12-01T02:00:27;13.02;;;7.18;;
14770;SDS011;7477;45.222;5.688;2022-12-01T02:03:47;8.68;;;5.85;;
14770;SDS011;7477;45.222;5.688;2022-12-01T02:07:11;8.43;;;6.00;;
14770;SDS011;7477;45.222;5.688;2022-12-01T02:25:18;7.90;;;5.03;;
14770;SDS011;7477;45.222;5.688;2022-12-01T02:32:23;5.80;;;4.53;;
14770;SDS011;7477;45.222;5.688;2022-12-01T02:39:30;6.60;;;4.68;;
14770;SDS011;7477;45.222;5.688;2022-12-01T02:46:28;6.53;;;4.95;;
14770;SDS011;7477;45.222;5.688;2022-12-01T02:49:54;6.60;;;4.80;;
14770;SDS011;7477;45.222;5.688;2022-12-01T02:53:17;7.25;;;5.00;;
14770;SDS011;7477;45.222;5.688;2022-12-01T02:56:37;7.28;;;5.18;;
14770;SDS011;7477;45.222;5.688;2022-12-01T02:59:57;5.80;;;4.80;;
14770;SDS011;7477;45.222;5.688;2022-12-01T03:03:42;7.50;;;5.10;;
14770;SDS011;7477;45.222;5.688;2022-12-01T03:11:09;7.93;;;4.80;;
14770;SDS011;7477;45.222;5.688;2022-12-01T03:14:49;8.88;;;5.00;;
14770;SDS011;7477;45.222;5.688;2022-12-01T03:25:22;6.90;;;4.80;;
14770;SDS011;7477;45.222;5.688;2022-12-01T03:28:50;5.93;;;4.32;;
14770;SDS011;7477;45.222;5.688;2022-12-01T03:32:14;6.05;;;4.47;;
14770;SDS011;7477;45.222;5.688;2022-12-01T03:35:43;6.07;;;4.88;;
14770;SDS011;7477;45.222;5.688;2022-12-01T03:39:12;7.13;;;4.68;;
14770;SDS011;7477;45.222;5.688;2022-12-01T03:42:39;7.75;;;4.18;;
14770;SDS011;7477;45.222;5.688;2022-12-01T03:49:36;6.47;;;4.80;;
14770;SDS011;7477;45.222;5.688;2022-12-01T03:53:11;6.10;;;4.00;;
14770;SDS011;7477;45.222;5.688;2022-12-01T03:56:47;6.32;;;4.28;;
14770;SDS011;7477;45.222;5.688;2022-12-01T04:00:18;6.05;;;4.35;;
14770;SDS011;7477;45.222;5.688;2022-12-01T04:03:38;6.07;;;4.50;;
14770;SDS011;7477;45.222;5.688;2022-12-01T04:06:59;8.02;;;4.88;;
14770;SDS011;7477;45.222;5.688;2022-12-01T04:10:19;6.05;;;4.57;;
14770;SDS011;7477;45.222;5.688;2022-12-01T04:13:39;6.78;;;4.43;;
14770;SDS011;7477;45.222;5.688;2022-12-01T04:16:59;6.13;;;4.32;;
14770;SDS011;7477;45.222;5.688;2022-12-01T04:20:18;13.15;;;5.20;;
14770;SDS011;7477;45.222;5.688;2022-12-01T04:23:39;8.00;;;5.28;;
14770;SDS011;7477;45.222;5.688;2022-12-01T04:27:18;9.80;;;5.22;;
14770;SDS011;7477;45.222;5.688;2022-12-01T04:30:38;7.20;;;4.53;;
14770;SDS011;7477;45.222;5.688;2022-12-01T04:33:59;7.65;;;5.07;;
14770;SDS011;7477;45.222;5.688;2022-12-01T04:37:18;6.55;;;4.45;;
14770;SDS011;7477;45.222;5.688;2022-12-01T04:40:39;8.98;;;5.72;;
14770;SDS011;7477;45.222;5.688;2022-12-01T04:43:59;7.35;;;5.32;;
14770;SDS011;7477;45.222;5.688;2022-12-01T04:47:19;7.13;;;5.53;;
14770;SDS011;7477;45.222;5.688;2022-12-01T04:50:40;10.10;;;5.50;;
14770;SDS011;7477;45.222;5.688;2022-12-01T04:54:00;9.10;;;6.47;;
14770;SDS011;7477;45.222;5.688;2022-12-01T04:57:21;9.75;;;5.57;;
14770;SDS011;7477;45.222;5.688;2022-12-01T05:00:41;9.98;;;5.72;;
14770;SDS011;7477;45.222;5.688;2022-12-01T05:04:01;7.25;;;5.70;;
14770;SDS011;7477;45.222;5.688;2022-12-01T05:07:21;12.05;;;6.68;;
14770;SDS011;7477;45.222;5.688;2022-12-01T05:10:41;8.68;;;6.00;;
14770;SDS011;7477;45.222;5.688;2022-12-01T05:14:01;11.05;;;6.18;;
14770;SDS011;7477;45.222;5.688;2022-12-01T05:17:20;9.15;;;6.30;;
14770;SDS011;7477;45.222;5.688;2022-12-01T05:20:40;8.32;;;5.45;;
14770;SDS011;7477;45.222;5.688;2022-12-01T05:24:15;7.90;;;5.63;;
14770;SDS011;7477;45.222;5.688;2022-12-01T05:27:36;7.22;;;5.65;;
14770;SDS011;7477;45.222;5.688;2022-12-01T05:30:56;7.10;;;5.60;;
14770;SDS011;7477;45.222;5.688;2022-12-01T05:34:16;10.05;;;5.20;;
14770;SDS011;7477;45.222;5.688;2022-12-01T05:37:36;6.78;;;4.78;;
14770;SDS011;7477;45.222;5.688;2022-12-01T05:40:56;5.22;;;4.15;;
14770;SDS011;7477;45.222;5.688;2022-12-01T05:44:16;6.15;;;4.22;;
14770;SDS011;7477;45.222;5.688;2022-12-01T05:47:36;4.95;;;3.58;;
14770;SDS011;7477;45.222;5.688;2022-12-01T05:50:56;3.83;;;3.35;;
14770;SDS011;7477;45.222;5.688;2022-12-01T05:54:16;4.63;;;3.58;;
14770;SDS011;7477;45.222;5.688;2022-12-01T05:57:36;5.07;;;3.63;;
14770;SDS011;7477;45.222;5.688;2022-12-01T06:00:56;6.03;;;3.78;;
14770;SDS011;7477;45.222;5.688;2022-12-01T06:04:16;6.80;;;4.00;;
14770;SDS011;7477;45.222;5.688;2022-12-01T06:07:37;4.30;;;3.60;;
14770;SDS011;7477;45.222;5.688;2022-12-01T06:10:58;4.57;;;3.38;;
14770;SDS011;7477;45.222;5.688;2022-12-01T06:14:18;5.57;;;4.00;;
14770;SDS011;7477;45.222;5.688;2022-12-01T06:17:38;13.45;;;4.53;;
14770;SDS011;7477;45.222;5.688;2022-12-01T06:20:58;6.77;;;5.17;;
14770;SDS011;7477;45.222;5.688;2022-12-01T06:24:18;8.23;;;5.65;;
14770;SDS011;7477;45.222;5.688;2022-12-01T06:27:38;8.75;;;6.05;;
14770;SDS011;7477;45.222;5.688;2022-12-01T06:30:58;9.90;;;6.22;;
14770;SDS011;7477;45.222;5.688;2022-12-01T06:34:18;8.97;;;6.27;;
14770;SDS011;7477;45.222;5.688;2022-12-01T06:37:38;9.43;;;6.15;;
14770;SDS011;7477;45.222;5.688;2022-12-01T06:40:58;6.32;;;5.38;;
14770;SDS011;7477;45.222;5.688;2022-12-01T06:44:18;7.47;;;5.03;;
14770;SDS011;7477;45.222;5.688;2022-12-01T06:47:38;5.47;;;4.55;;
14770;SDS011;7477;45.222;5.688;2022-12-01T06:50:59;7.82;;;4.95;;
14770;SDS011;7477;45.222;5.688;2022-12-01T06:54:20;8.82;;;5.05;;
14770;SDS011;7477;45.222;5.688;2022-12-01T06:57:42;10.65;;;4.60;;
14770;SDS011;7477;45.222;5.688;2022-12-01T07:01:08;5.40;;;4.60;;
14770;SDS011;7477;45.222;5.688;2022-12-01T07:04:29;6.68;;;4.70;;
14770;SDS011;7477;45.222;5.688;2022-12-01T07:07:49;6.07;;;3.90;;
14770;SDS011;7477;45.222;5.688;2022-12-01T07:11:10;5.70;;;4.20;;
14770;SDS011;7477;45.222;5.688;2022-12-01T07:14:31;6.90;;;4.15;;
14770;SDS011;7477;45.222;5.688;2022-12-01T07:17:52;5.47;;;4.30;;
14770;SDS011;7477;45.222;5.688;2022-12-01T07:21:12;5.35;;;4.53;;
14770;SDS011;7477;45.222;5.688;2022-12-01T07:24:33;5.28;;;4.68;;
14770;SDS011;7477;45.222;5.688;2022-12-01T07:27:53;15.43;;;7.85;;
14770;SDS011;7477;45.222;5.688;2022-12-01T07:31:14;19.60;;;12.15;;
14770;SDS011;7477;45.222;5.688;2022-12-01T07:34:36;18.50;;;12.13;;
14770;SDS011;7477;45.222;5.688;2022-12-01T07:37:56;14.45;;;9.52;;
14770;SDS011;7477;45.222;5.688;2022-12-01T07:41:16;14.57;;;9.82;;
14770;SDS011;7477;45.222;5.688;2022-12-01T07:44:40;12.82;;;8.68;;
14770;SDS011;7477;45.222;5.688;2022-12-01T07:48:00;12.05;;;8.10;;
14770;SDS011;7477;45.222;5.688;2022-12-01T07:51:20;14.60;;;6.65;;
14770;SDS011;7477;45.222;5.688;2022-12-01T07:54:41;7.78;;;5.53;;
14770;SDS011;7477;45.222;5.688;2022-12-01T07:58:01;12.52;;;5.95;;
14770;SDS011;7477;45.222;5.688;2022-12-01T08:01:21;19.70;;;10.70;;
14770;SDS011;7477;45.222;5.688;2022-12-01T08:04:43;11.55;;;8.65;;
14770;SDS011;7477;45.222;5.688;2022-12-01T08:08:03;14.68;;;8.18;;
14770;SDS011;7477;45.222;5.688;2022-12-01T08:11:26;9.93;;;6.85;;
14770;SDS011;7477;45.222;5.688;2022-12-01T08:14:49;12.77;;;7.65;;
14770;SDS011;7477;45.222;5.688;2022-12-01T08:18:09;12.50;;;7.38;;
14770;SDS011;7477;45.222;5.688;2022-12-01T08:21:29;10.63;;;8.02;;
14770;SDS011;7477;45.222;5.688;2022-12-01T08:24:49;12.52;;;7.18;;
14770;SDS011;7477;45.222;5.688;2022-12-01T08:28:09;17.30;;;8.52;;
14770;SDS011;7477;45.222;5.688;2022-12-01T08:31:30;11.27;;;8.23;;
14770;SDS011;7477;45.222;5.688;2022-12-01T08:34:51;11.85;;;7.95;;
14770;SDS011;7477;45.222;5.688;2022-12-01T08:38:11;13.30;;;8.32;;
14770;SDS011;7477;45.222;5.688;2022-12-01T08:41:30;10.50;;;7.18;;
14770;SDS011;7477;45.222;5.688;2022-12-01T08:44:50;12.68;;;7.88;;
14770;SDS011;7477;45.222;5.688;2022-12-01T08:48:10;13.70;;;9.60;;
14770;SDS011;7477;45.222;5.688;2022-12-01T08:51:31;11.90;;;8.30;;
14770;SDS011;7477;45.222;5.688;2022-12-01T08:54:51;11.68;;;8.38;;
14770;SDS011;7477;45.222;5.688;2022-12-01T08:58:10;12.55;;;8.38;;
14770;SDS011;7477;45.222;5.688;2022-12-01T09:01:31;11.50;;;7.95;;
14770;SDS011;7477;45.222;5.688;2022-12-01T09:04:51;13.75;;;7.90;;
14770;SDS011;7477;45.222;5.688;2022-12-01T09:08:11;12.05;;;7.97;;
14770;SDS011;7477;45.222;5.688;2022-12-01T09:11:51;12.48;;;7.50;;
14770;SDS011;7477;45.222;5.688;2022-12-01T09:15:11;13.65;;;9.52;;
14770;SDS011;7477;45.222;5.688;2022-12-01T09:18:33;13.77;;;8.48;;
14770;SDS011;7477;45.222;5.688;2022-12-01T09:21:53;10.35;;;8.18;;
14770;SDS011;7477;45.222;5.688;2022-12-01T09:25:13;13.10;;;8.65;;
14770;SDS011;7477;45.222;5.688;2022-12-01T09:28:33;11.75;;;8.90;;
14770;SDS011;7477;45.222;5.688;2022-12-01T09:31:54;10.25;;;8.38;;
14770;SDS011;7477;45.222;5.688;2022-12-01T09:35:15;12.07;;;7.85;;
14770;SDS011;7477;45.222;5.688;2022-12-01T09:38:35;10.77;;;8.30;;
14770;SDS011;7477;45.222;5.688;2022-12-01T09:42:10;11.43;;;8.38;;
14770;SDS011;7477;45.222;5.688;2022-12-01T09:45:35;23.60;;;10.43;;
14770;SDS011;7477;45.222;5.688;2022-12-01T09:48:58;14.93;;;9.93;;
14770;SDS011;7477;45.222;5.688;2022-12-01T09:52:21;16.10;;;8.27;;
14770;SDS011;7477;45.222;5.688;2022-12-01T09:55:43;10.20;;;7.50;;
14770;SDS011;7477;45.222;5.688;2022-12-01T09:59:05;13.75;;;8.60;;
14770;SDS011;7477;45.222;5.688;2022-12-01T10:02:31;15.85;;;8.65;;
14770;SDS011;7477;45.222;5.688;2022-12-01T10:09:24;13.63;;;8.43;;
14770;SDS011;7477;45.222;5.688;2022-12-01T10:12:48;13.25;;;9.40;;
14770;SDS011;7477;45.222;5.688;2022-12-01T10:16:09;13.07;;;8.43;;
14770;SDS011;7477;45.222;5.688;2022-12-01T10:30:48;17.33;;;8.80;;
14770;SDS011;7477;45.222;5.688;2022-12-01T10:34:11;12.05;;;8.05;;
14770;SDS011;7477;45.222;5.688;2022-12-01T10:37:35;12.90;;;8.50;;
14770;SDS011;7477;45.222;5.688;2022-12-01T10:40:56;10.75;;;7.43;;
14770;SDS011;7477;45.222;5.688;2022-12-01T10:44:19;10.73;;;7.95;;
14770;SDS011;7477;45.222;5.688;2022-12-01T10:47:39;13.60;;;8.45;;
14770;SDS011;7477;45.222;5.688;2022-12-01T10:51:26;11.80;;;8.07;;
14770;SDS011;7477;45.222;5.688;2022-12-01T10:54:47;13.77;;;9.00;;
14770;SDS011;7477;45.222;5.688;2022-12-01T10:58:14;13.27;;;9.38;;
14770;SDS011;7477;45.222;5.688;2022-12-01T11:01:36;14.02;;;8.93;;
14770;SDS011;7477;45.222;5.688;2022-12-01T11:05:17;13.75;;;9.50;;
14770;SDS011;7477;45.222;5.688;2022-12-01T11:08:45;15.90;;;9.95;;
14770;SDS011;7477;45.222;5.688;2022-12-01T11:12:24;15.55;;;9.00;;
14770;SDS011;7477;45.222;5.688;2022-12-01T11:15:51;15.25;;;9.18;;
14770;SDS011;7477;45.222;5.688;2022-12-01T11:19:20;11.20;;;8.35;;
14770;SDS011;7477;45.222;5.688;2022-12-01T11:23:21;17.55;;;11.35;;
14770;SDS011;7477;45.222;5.688;2022-12-01T11:26:48;15.43;;;8.90;;
14770;SDS011;7477;45.222;5.688;2022-12-01T11:30:24;15.10;;;10.40;;
14770;SDS011;7477;45.222;5.688;2022-12-01T11:33:47;12.30;;;9.07;;
14770;SDS011;7477;45.222;5.688;2022-12-01T11:37:14;14.80;;;10.82;;
14770;SDS011;7477;45.222;5.688;2022-12-01T11:40:57;15.85;;;11.88;;
14770;SDS011;7477;45.222;5.688;2022-12-01T11:44:17;16.95;;;10.60;;
14770;SDS011;7477;45.222;5.688;2022-12-01T11:47:56;18.67;;;12.20;;
14770;SDS011;7477;45.222;5.688;2022-12-01T11:54:53;14.43;;;9.13;;
14770;SDS011;7477;45.222;5.688;2022-12-01T11:58:28;21.27;;;12.52;;
14770;SDS011;7477;45.222;5.688;2022-12-01T12:38:13;13.02;;;10.63;;
14770;SDS011;7477;45.222;5.688;2022-12-01T12:41:54;13.43;;;9.80;;
14770;SDS011;7477;45.222;5.688;2022-12-01T12:52:11;14.25;;;9.50;;
14770;SDS011;7477;45.222;5.688;2022-12-01T12:55:48;11.70;;;8.45;;
14770;SDS011;7477;45.222;5.688;2022-12-01T12:59:10;45.55;;;22.35;;
14770;SDS011;7477;45.222;5.688;2022-12-01T13:03:04;50.45;;;23.15;;
14770;SDS011;7477;45.222;5.688;2022-12-01T13:10:24;16.42;;;10.15;;
14770;SDS011;7477;45.222;5.688;2022-12-01T13:14:04;13.50;;;9.55;;
14770;SDS011;7477;45.222;5.688;2022-12-01T13:17:50;14.10;;;9.43;;
14770;SDS011;7477;45.222;5.688;2022-12-01T13:21:15;19.13;;;12.82;;
14770;SDS011;7477;45.222;5.688;2022-12-01T13:24:37;26.75;;;14.88;;
14770;SDS011;7477;45.222;5.688;2022-12-01T13:27:57;13.88;;;8.95;;
14770;SDS011;7477;45.222;5.688;2022-12-01T13:31:21;15.50;;;10.00;;
14770;SDS011;7477;45.222;5.688;2022-12-01T13:34:41;23.33;;;14.50;;
14770;SDS011;7477;45.222;5.688;2022-12-01T13:45:19;12.90;;;9.98;;
14770;SDS011;7477;45.222;5.688;2022-12-01T13:56:24;22.65;;;13.50;;
14770;SDS011;7477;45.222;5.688;2022-12-01T14:03:39;14.07;;;9.48;;
14770;SDS011;7477;45.222;5.688;2022-12-01T14:07:11;12.35;;;9.32;;
14770;SDS011;7477;45.222;5.688;2022-12-01T14:14:35;14.18;;;9.52;;
14770;SDS011;7477;45.222;5.688;2022-12-01T14:21:42;21.85;;;10.55;;
14770;SDS011;7477;45.222;5.688;2022-12-01T14:25:20;19.80;;;12.07;;
14770;SDS011;7477;45.222;5.688;2022-12-01T14:32:20;16.25;;;11.23;;
14770;SDS011;7477;45.222;5.688;2022-12-01T14:35:40;19.92;;;12.32;;
14770;SDS011;7477;45.222;5.688;2022-12-01T14:39:02;24.90;;;12.65;;
14770;SDS011;7477;45.222;5.688;2022-12-01T14:42:30;14.63;;;10.05;;
14770;SDS011;7477;45.222;5.688;2022-12-01T14:46:21;16.10;;;10.50;;
14770;SDS011;7477;45.222;5.688;2022-12-01T14:53:30;18.88;;;10.35;;
14770;SDS011;7477;45.222;5.688;2022-12-01T14:56:54;18.75;;;11.43;;
14770;SDS011;7477;45.222;5.688;2022-12-01T15:00:20;20.20;;;9.85;;
14770;SDS011;7477;45.222;5.688;2022-12-01T15:03:43;15.93;;;9.95;;
14770;SDS011;7477;45.222;5.688;2022-12-01T15:07:19;17.83;;;9.48;;
14770;SDS011;7477;45.222;5.688;2022-12-01T15:10:47;16.92;;;8.57;;
14770;SDS011;7477;45.222;5.688;2022-12-01T15:14:45;12.85;;;9.43;;
14770;SDS011;7477;45.222;5.688;2022-12-01T15:18:05;15.07;;;9.50;;
14770;SDS011;7477;45.222;5.688;2022-12-01T15:21:40;13.13;;;9.10;;
14770;SDS011;7477;45.222;5.688;2022-12-01T15:25:07;17.15;;;10.32;;
14770;SDS011;7477;45.222;5.688;2022-12-01T15:28:34;16.63;;;10.00;;
14770;SDS011;7477;45.222;5.688;2022-12-01T15:31:54;12.15;;;8.68;;
14770;SDS011;7477;45.222;5.688;2022-12-01T15:35:16;16.58;;;8.88;;
14770;SDS011;7477;45.222;5.688;2022-12-01T15:38:39;10.95;;;8.38;;
14770;SDS011;7477;45.222;5.688;2022-12-01T15:42:02;16.08;;;9.25;;
14770;SDS011;7477;45.222;5.688;2022-12-01T15:45:22;14.10;;;8.85;;
14770;SDS011;7477;45.222;5.688;2022-12-01T15:48:43;12.88;;;8.32;;
14770;SDS011;7477;45.222;5.688;2022-12-01T15:52:07;13.63;;;8.63;;
14770;SDS011;7477;45.222;5.688;2022-12-01T15:55:29;12.43;;;8.48;;
14770;SDS011;7477;45.222;5.688;2022-12-01T15:58:51;14.20;;;8.13;;
14770;SDS011;7477;45.222;5.688;2022-12-01T16:05:44;16.58;;;9.10;;
14770;SDS011;7477;45.222;5.688;2022-12-01T16:09:04;14.75;;;10.68;;
14770;SDS011;7477;45.222;5.688;2022-12-01T16:12:41;17.50;;;9.80;;
14770;SDS011;7477;45.222;5.688;2022-12-01T16:19:41;16.60;;;10.20;;
14770;SDS011;7477;45.222;5.688;2022-12-01T16:23:02;15.10;;;10.02;;
14770;SDS011;7477;45.222;5.688;2022-12-01T16:26:28;16.77;;;11.10;;
14770;SDS011;7477;45.222;5.688;2022-12-01T16:33:27;13.18;;;9.25;;
14770;SDS011;7477;45.222;5.688;2022-12-01T16:36:47;20.20;;;11.60;;
14770;SDS011;7477;45.222;5.688;2022-12-01T16:40:07;18.30;;;12.05;;
14770;SDS011;7477;45.222;5.688;2022-12-01T16:43:29;14.13;;;9.40;;
14770;SDS011;7477;45.222;5.688;2022-12-01T16:46:49;17.90;;;10.07;;
14770;SDS011;7477;45.222;5.688;2022-12-01T16:50:13;17.25;;;12.18;;
14770;SDS011;7477;45.222;5.688;2022-12-01T16:53:37;15.85;;;10.48;;
14770;SDS011;7477;45.222;5.688;2022-12-01T16:56:57;18.15;;;11.05;;
14770;SDS011;7477;45.222;5.688;2022-12-01T17:00:17;16.40;;;10.45;;
14770;SDS011;7477;45.222;5.688;2022-12-01T17:03:37;18.73;;;11.45;;
14770;SDS011;7477;45.222;5.688;2022-12-01T17:06:57;35.97;;;20.52;;
14770;SDS011;7477;45.222;5.688;2022-12-01T17:10:18;26.90;;;16.30;;
14770;SDS011;7477;45.222;5.688;2022-12-01T17:13:38;23.80;;;15.90;;
14770;SDS011;7477;45.222;5.688;2022-12-01T17:16:58;29.92;;;14.50;;
14770;SDS011;7477;45.222;5.688;2022-12-01T17:20:18;21.35;;;13.70;;
14770;SDS011;7477;45.222;5.688;2022-12-01T17:23:38;24.20;;;13.82;;
14770;SDS011;7477;45.222;5.688;2022-12-01T17:26:58;21.50;;;14.73;;
14770;SDS011;7477;45.222;5.688;2022-12-01T17:30:19;23.85;;;17.65;;
14770;SDS011;7477;45.222;5.688;2022-12-01T17:33:39;23.15;;;13.90;;
14770;SDS011;7477;45.222;5.688;2022-12-01T17:36:59;17.98;;;13.02;;
14770;SDS011;7477;45.222;5.688;2022-12-01T17:40:19;18.77;;;12.27;;
14770;SDS011;7477;45.222;5.688;2022-12-01T17:43:39;17.65;;;11.90;;
14770;SDS011;7477;45.222;5.688;2022-12-01T17:46:59;19.67;;;13.57;;
14770;SDS011;7477;45.222;5.688;2022-12-01T17:50:19;15.25;;;10.48;;
14770;SDS011;7477;45.222;5.688;2022-12-01T17:53:39;20.10;;;12.43;;
14770;SDS011;7477;45.222;5.688;2022-12-01T17:56:59;18.48;;;12.23;;
14770;SDS011;7477;45.222;5.688;2022-12-01T18:00:19;19.20;;;12.35;;
14770;SDS011;7477;45.222;5.688;2022-12-01T18:03:40;16.33;;;11.45;;
14770;SDS011;7477;45.222;5.688;2022-12-01T18:07:00;16.67;;;11.35;;
14770;SDS011;7477;45.222;5.688;2022-12-01T18:10:20;17.60;;;11.65;;
14770;SDS011;7477;45.222;5.688;2022-12-01T18:13:41;17.92;;;11.90;;
14770;SDS011;7477;45.222;5.688;2022-12-01T18:17:03;17.35;;;11.63;;
14770;SDS011;7477;45.222;5.688;2022-12-01T18:20:23;15.75;;;10.73;;
14770;SDS011;7477;45.222;5.688;2022-12-01T18:23:50;15.38;;;10.23;;
14770;SDS011;7477;45.222;5.688;2022-12-01T18:27:16;19.98;;;10.70;;
14770;SDS011;7477;45.222;5.688;2022-12-01T18:30:36;17.17;;;10.40;;
14770;SDS011;7477;45.222;5.688;2022-12-01T18:33:57;15.85;;;10.15;;
14770;SDS011;7477;45.222;5.688;2022-12-01T18:37:21;17.73;;;10.40;;
14770;SDS011;7477;45.222;5.688;2022-12-01T18:40:41;17.40;;;10.70;;
14770;SDS011;7477;45.222;5.688;2022-12-01T18:44:01;14.45;;;10.35;;
14770;SDS011;7477;45.222;5.688;2022-12-01T18:47:21;14.18;;;10.90;;
14770;SDS011;7477;45.222;5.688;2022-12-01T18:50:41;15.82;;;10.68;;
14770;SDS011;7477;45.222;5.688;2022-12-01T18:54:02;22.95;;;13.02;;
14770;SDS011;7477;45.222;5.688;2022-12-01T18:57:23;18.13;;;11.48;;
14770;SDS011;7477;45.222;5.688;2022-12-01T19:00:43;21.30;;;14.25;;
14770;SDS011;7477;45.222;5.688;2022-12-01T19:04:04;19.80;;;12.63;;
14770;SDS011;7477;45.222;5.688;2022-12-01T19:07:24;24.38;;;14.30;;
14770;SDS011;7477;45.222;5.688;2022-12-01T19:10:44;33.35;;;16.73;;
14770;SDS011;7477;45.222;5.688;2022-12-01T19:14:16;24.38;;;15.65;;
14770;SDS011;7477;45.222;5.688;2022-12-01T19:17:38;25.02;;;15.70;;
14770;SDS011;7477;45.222;5.688;2022-12-01T19:21:04;21.60;;;14.93;;
14770;SDS011;7477;45.222;5.688;2022-12-01T19:24:25;23.20;;;14.55;;
14770;SDS011;7477;45.222;5.688;2022-12-01T19:27:45;20.65;;;15.02;;
14770;SDS011;7477;45.222;5.688;2022-12-01T19:31:06;21.75;;;14.85;;
14770;SDS011;7477;45.222;5.688;2022-12-01T19:34:27;22.63;;;14.57;;
14770;SDS011;7477;45.222;5.688;2022-12-01T19:37:47;18.55;;;13.48;;
14770;SDS011;7477;45.222;5.688;2022-12-01T19:41:08;24.55;;;14.82;;
14770;SDS011;7477;45.222;5.688;2022-12-01T19:44:28;24.63;;;15.57;;
14770;SDS011;7477;45.222;5.688;2022-12-01T19:47:48;20.17;;;14.60;;
14770;SDS011;7477;45.222;5.688;2022-12-01T19:51:20;22.45;;;15.95;;
14770;SDS011;7477;45.222;5.688;2022-12-01T19:54:45;25.85;;;17.23;;
14770;SDS011;7477;45.222;5.688;2022-12-01T19:58:04;23.77;;;16.20;;
14770;SDS011;7477;45.222;5.688;2022-12-01T20:01:25;23.83;;;16.17;;
14770;SDS011;7477;45.222;5.688;2022-12-01T20:04:45;27.08;;;15.63;;
14770;SDS011;7477;45.222;5.688;2022-12-01T20:08:05;24.25;;;16.52;;
14770;SDS011;7477;45.222;5.688;2022-12-01T20:11:26;37.72;;;23.58;;
14770;SDS011;7477;45.222;5.688;2022-12-01T20:14:48;23.30;;;16.17;;
14770;SDS011;7477;45.222;5.688;2022-12-01T20:18:07;31.17;;;19.02;;
14770;SDS011;7477;45.222;5.688;2022-12-01T20:21:31;28.58;;;18.65;;
14770;SDS011;7477;45.222;5.688;2022-12-01T20:24:53;29.60;;;16.27;;
14770;SDS011;7477;45.222;5.688;2022-12-01T20:28:13;23.05;;;15.77;;
14770;SDS011;7477;45.222;5.688;2022-12-01T20:31:33;35.92;;;20.95;;
14770;SDS011;7477;45.222;5.688;2022-12-01T20:34:54;26.13;;;16.40;;
14770;SDS011;7477;45.222;5.688;2022-12-01T20:38:14;28.65;;;16.70;;
14770;SDS011;7477;45.222;5.688;2022-12-01T20:41:34;37.45;;;22.17;;
14770;SDS011;7477;45.222;5.688;2022-12-01T20:44:53;39.83;;;22.42;;
14770;SDS011;7477;45.222;5.688;2022-12-01T20:48:14;31.05;;;19.92;;
14770;SDS011;7477;45.222;5.688;2022-12-01T20:51:34;31.20;;;18.95;;
14770;SDS011;7477;45.222;5.688;2022-12-01T20:54:54;26.08;;;16.17;;
14770;SDS011;7477;45.222;5.688;2022-12-01T20:58:14;28.50;;;16.85;;
14770;SDS011;7477;45.222;5.688;2022-12-01T21:01:34;25.63;;;16.80;;
14770;SDS011;7477;45.222;5.688;2022-12-01T21:04:55;26.75;;;16.98;;
14770;SDS011;7477;45.222;5.688;2022-12-01T21:08:15;25.85;;;16.08;;
14770;SDS011;7477;45.222;5.688;2022-12-01T21:11:41;25.88;;;16.80;;
14770;SDS011;7477;45.222;5.688;2022-12-01T21:15:27;33.63;;;19.95;;
14770;SDS011;7477;45.222;5.688;2022-12-01T21:22:10;51.08;;;27.70;;
14770;SDS011;7477;45.222;5.688;2022-12-01T21:25:31;36.25;;;21.55;;
14770;SDS011;7477;45.222;5.688;2022-12-01T21:28:52;47.70;;;27.08;;
14770;SDS011;7477;45.222;5.688;2022-12-01T21:35:38;23.48;;;15.13;;
14770;SDS011;7477;45.222;5.688;2022-12-01T21:38:59;22.85;;;13.65;;
14770;SDS011;7477;45.222;5.688;2022-12-01T21:42:32;23.67;;;14.38;;
14770;SDS011;7477;45.222;5.688;2022-12-01T21:45:57;28.08;;;16.15;;
14770;SDS011;7477;45.222;5.688;2022-12-01T21:49:21;20.02;;;12.30;;
14770;SDS011;7477;45.222;5.688;2022-12-01T21:52:54;27.15;;;14.75;;
14770;SDS011;7477;45.222;5.688;2022-12-01T21:56:18;33.55;;;18.02;;
14770;SDS011;7477;45.222;5.688;2022-12-01T21:59:40;30.27;;;17.67;;
14770;SDS011;7477;45.222;5.688;2022-12-01T22:06:48;23.50;;;12.85;;
14770;SDS011;7477;45.222;5.688;2022-12-01T22:14:15;32.05;;;17.10;;
14770;SDS011;7477;45.222;5.688;2022-12-01T22:17:55;43.97;;;22.52;;
14770;SDS011;7477;45.222;5.688;2022-12-01T22:24:45;33.08;;;16.77;;
14770;SDS011;7477;45.222;5.688;2022-12-01T22:28:28;26.38;;;15.00;;
14770;SDS011;7477;45.222;5.688;2022-12-01T22:31:47;29.85;;;17.42;;
14770;SDS011;7477;45.222;5.688;2022-12-01T22:35:26;32.33;;;20.17;;
14770;SDS011;7477;45.222;5.688;2022-12-01T22:38:49;38.30;;;20.67;;
14770;SDS011;7477;45.222;5.688;2022-12-01T22:42:12;31.63;;;18.92;;
14770;SDS011;7477;45.222;5.688;2022-12-01T22:45:38;88.55;;;46.78;;
14770;SDS011;7477;45.222;5.688;2022-12-01T22:49:00;32.55;;;20.40;;
14770;SDS011;7477;45.222;5.688;2022-12-01T22:52:27;25.38;;;15.50;;
14770;SDS011;7477;45.222;5.688;2022-12-01T22:55:49;22.60;;;14.48;;
14770;SDS011;7477;45.222;5.688;2022-12-01T22:59:12;27.65;;;17.40;;
14770;SDS011;7477;45.222;5.688;2022-12-01T23:02:34;32.22;;;17.42;;
14770;SDS011;7477;45.222;5.688;2022-12-01T23:05:55;93.18;;;40.03;;
14770;SDS011;7477;45.222;5.688;2022-12-01T23:09:15;34.90;;;18.85;;
14770;SDS011;7477;45.222;5.688;2022-12-01T23:12:35;40.17;;;21.60;;